createdAt,value
2018-09-19T00:00:52.979Z,4.65
2018-09-19T00:03:21.851Z,5.37
2018-09-19T00:05:51.706Z,5.20
2018-09-19T00:08:20.586Z,5.47
2018-09-19T00:10:49.470Z,5.15
2018-09-19T00:13:18.351Z,5.20
2018-09-19T00:15:47.221Z,4.97
2018-09-19T00:18:16.106Z,6.08
2018-09-19T00:20:44.976Z,6.17
2018-09-19T00:23:13.872Z,5.10
2018-09-19T00:25:42.756Z,5.42
2018-09-19T00:28:11.655Z,5.80
2018-09-19T00:30:40.522Z,5.92
2018-09-19T00:33:09.407Z,6.42
2018-09-19T00:35:38.270Z,5.35
2018-09-19T00:38:07.387Z,5.55
2018-09-19T00:40:36.276Z,5.17
2018-09-19T00:43:05.195Z,6.80
2018-09-19T00:45:34.062Z,5.72
2018-09-19T00:48:03.023Z,5.65
2018-09-19T00:50:31.899Z,5.58
2018-09-19T00:53:00.778Z,6.00
2018-09-19T00:55:29.662Z,5.90
2018-09-19T00:57:58.654Z,5.58
2018-09-19T01:00:27.574Z,5.83
2018-09-19T01:02:56.502Z,5.40
2018-09-19T01:05:25.400Z,5.28
2018-09-19T01:07:54.298Z,5.30
2018-09-19T01:10:23.333Z,6.20
2018-09-19T01:12:52.207Z,5.40
2018-09-19T01:15:21.080Z,6.08
2018-09-19T01:17:49.983Z,5.45
2018-09-19T01:20:18.848Z,5.20
2018-09-19T01:22:47.751Z,5.78
2018-09-19T01:25:16.614Z,5.80
2018-09-19T01:27:45.481Z,5.92
2018-09-19T01:30:14.339Z,6.25
2018-09-19T01:32:43.206Z,5.70
2018-09-19T01:35:12.081Z,5.83
2018-09-19T01:37:40.923Z,6.42
2018-09-19T01:40:11.862Z,7.33
2018-09-19T01:42:40.746Z,6.67
2018-09-19T01:45:09.627Z,6.87
2018-09-19T01:47:38.510Z,7.22
2018-09-19T01:50:07.430Z,6.78
2018-09-19T01:52:36.298Z,6.20
2018-09-19T01:55:05.214Z,6.92
2018-09-19T01:57:34.096Z,6.70
2018-09-19T02:00:02.964Z,7.15
2018-09-19T02:02:31.845Z,7.10
2018-09-19T02:05:00.712Z,6.42
2018-09-19T02:07:29.601Z,6.45
2018-09-19T02:09:58.501Z,6.33
2018-09-19T02:12:27.418Z,6.95
2018-09-19T02:14:56.319Z,5.90
2018-09-19T02:17:25.229Z,6.08
2018-09-19T02:19:54.105Z,6.30
2018-09-19T02:22:22.996Z,7.25
2018-09-19T02:24:51.881Z,6.50
2018-09-19T02:27:20.754Z,5.85
2018-09-19T02:29:49.618Z,6.42
2018-09-19T02:32:18.691Z,6.83
2018-09-19T02:34:47.502Z,6.65
2018-09-19T02:37:16.387Z,6.12
2018-09-19T02:39:45.243Z,6.10
2018-09-19T02:42:14.119Z,7.03
2018-09-19T02:44:43.113Z,6.65
2018-09-19T02:47:11.919Z,5.80
2018-09-19T02:49:40.876Z,6.10
2018-09-19T02:52:09.745Z,5.87
2018-09-19T02:54:38.625Z,6.28
2018-09-19T02:57:07.612Z,5.70
2018-09-19T02:59:36.482Z,7.30
2018-09-19T03:02:05.364Z,6.65
2018-09-19T03:04:34.268Z,6.28
2018-09-19T03:07:03.126Z,6.65
2018-09-19T03:09:32.010Z,6.40
2018-09-19T03:12:00.874Z,6.85
2018-09-19T03:14:29.766Z,6.72
2018-09-19T03:16:58.698Z,6.85
2018-09-19T03:19:27.565Z,6.60
2018-09-19T03:21:56.439Z,7.45
2018-09-19T03:24:25.462Z,6.42
2018-09-19T03:26:54.358Z,7.00
2018-09-19T03:29:23.251Z,8.13
2018-09-19T03:31:52.114Z,7.33
2018-09-19T03:34:21.018Z,6.20
2018-09-19T03:36:49.877Z,6.45
2018-09-19T03:39:18.753Z,5.95
2018-09-19T03:41:47.623Z,5.42
2018-09-19T03:44:16.502Z,6.15
2018-09-19T03:46:45.361Z,6.95
2018-09-19T03:49:14.250Z,6.30
2018-09-19T03:51:43.122Z,6.85
2018-09-19T03:54:12.027Z,6.58
2018-09-19T03:56:40.934Z,7.42
2018-09-19T03:59:09.885Z,6.35
2018-09-19T04:01:38.747Z,6.12
2018-09-19T04:04:07.654Z,5.83
2018-09-19T04:06:36.511Z,6.17
2018-09-19T04:09:08.947Z,5.37
2018-09-19T04:11:37.941Z,5.30
2018-09-19T04:14:07.102Z,5.97
2018-09-19T04:16:35.942Z,6.17
2018-09-19T04:19:04.855Z,5.25
2018-09-19T04:21:33.730Z,4.40
2018-09-19T04:24:02.622Z,4.75
2018-09-19T04:26:31.486Z,5.28
2018-09-19T04:29:00.382Z,4.80
2018-09-19T04:31:29.275Z,4.45
2018-09-19T04:33:58.165Z,3.87
2018-09-19T04:36:27.063Z,4.28
2018-09-19T04:38:56.018Z,3.72
2018-09-19T04:41:24.906Z,4.30
2018-09-19T04:43:53.850Z,4.47
2018-09-19T04:46:22.746Z,4.17
2018-09-19T04:48:51.627Z,4.47
2018-09-19T04:51:20.568Z,4.20
2018-09-19T04:53:49.402Z,3.85
2018-09-19T04:56:18.310Z,4.62
2018-09-19T04:58:47.206Z,3.92
2018-09-19T05:01:16.063Z,4.58
2018-09-19T05:03:44.940Z,3.85
2018-09-19T05:06:13.822Z,3.85
2018-09-19T05:08:42.691Z,4.17
2018-09-19T05:11:11.584Z,3.30
2018-09-19T05:13:40.488Z,4.10
2018-09-19T05:16:09.375Z,3.80
2018-09-19T05:18:38.308Z,3.60
2018-09-19T05:21:07.206Z,4.30
2018-09-19T05:23:36.101Z,4.22
2018-09-19T05:26:05.011Z,4.20
2018-09-19T05:28:33.894Z,3.90
2018-09-19T05:31:02.749Z,3.77
2018-09-19T05:33:31.623Z,4.12
2018-09-19T05:36:00.514Z,3.00
2018-09-19T05:38:29.471Z,4.08
2018-09-19T05:40:58.398Z,3.67
2018-09-19T05:43:27.322Z,3.30
2018-09-19T05:45:56.251Z,3.20
2018-09-19T05:48:25.154Z,4.03
2018-09-19T05:50:54.100Z,3.72
2018-09-19T05:53:22.967Z,3.50
2018-09-19T05:55:51.881Z,3.80
2018-09-19T05:58:20.773Z,3.70
2018-09-19T06:00:49.591Z,3.95
2018-09-19T06:03:18.486Z,3.98
2018-09-19T06:05:47.452Z,3.75
2018-09-19T06:08:16.329Z,3.27
2018-09-19T06:10:45.212Z,3.20
2018-09-19T06:13:14.093Z,2.90
2018-09-19T06:15:42.952Z,3.30
2018-09-19T06:18:11.846Z,3.17
2018-09-19T06:20:40.708Z,3.25
2018-09-19T06:23:09.817Z,3.37
2018-09-19T06:25:38.699Z,3.20
2018-09-19T06:28:07.595Z,3.80
2018-09-19T06:30:36.515Z,2.83
2018-09-19T06:33:05.768Z,2.45
2018-09-19T06:35:34.462Z,2.62
2018-09-19T06:38:03.338Z,3.15
2018-09-19T06:40:32.284Z,3.50
2018-09-19T06:43:01.130Z,2.70
2018-09-19T06:45:30.052Z,2.62
2018-09-19T06:47:58.921Z,3.10
2018-09-19T06:50:27.859Z,2.95
2018-09-19T06:52:57.876Z,2.67
2018-09-19T06:55:26.857Z,2.90
2018-09-19T06:57:55.890Z,3.00
2018-09-19T07:00:24.816Z,3.05
2018-09-19T07:02:53.690Z,3.25
2018-09-19T07:05:22.550Z,2.20
2018-09-19T07:07:51.433Z,2.72
2018-09-19T07:10:20.325Z,2.92
2018-09-19T07:12:49.200Z,2.85
2018-09-19T07:15:18.088Z,2.62
2018-09-19T07:17:46.970Z,2.52
2018-09-19T07:20:15.852Z,3.00
2018-09-19T07:22:44.737Z,2.80
2018-09-19T07:25:13.650Z,3.00
2018-09-19T07:27:42.486Z,2.57
2018-09-19T07:30:11.379Z,2.10
2018-09-19T07:32:40.242Z,2.37
2018-09-19T07:35:09.180Z,2.50
2018-09-19T07:37:38.042Z,2.60
2018-09-19T07:40:06.975Z,2.23
2018-09-19T07:42:35.830Z,2.43
2018-09-19T07:45:04.762Z,2.52
2018-09-19T07:47:33.652Z,2.20
2018-09-19T07:50:02.558Z,3.13
2018-09-19T07:52:31.425Z,3.10
2018-09-19T07:55:00.295Z,2.17
2018-09-19T07:57:29.187Z,2.47
2018-09-19T07:59:58.090Z,2.20
2018-09-19T08:02:26.998Z,2.70
2018-09-19T08:04:58.850Z,2.73
2018-09-19T08:07:27.803Z,2.50
2018-09-19T08:09:56.762Z,2.63
2018-09-19T08:12:25.626Z,2.60
2018-09-19T08:14:54.532Z,2.60
2018-09-19T08:17:23.397Z,2.30
2018-09-19T08:19:52.278Z,2.27
2018-09-19T08:22:21.151Z,2.17
2018-09-19T08:24:50.023Z,2.20
2018-09-19T08:27:18.931Z,2.67
2018-09-19T08:29:47.799Z,2.50
2018-09-19T08:32:16.686Z,2.60
2018-09-19T08:34:45.562Z,2.80
2018-09-19T08:37:14.435Z,2.40
2018-09-19T08:39:43.319Z,2.60
2018-09-19T08:42:12.180Z,2.30
2018-09-19T08:44:41.058Z,2.90
2018-09-19T08:47:09.998Z,3.33
2018-09-19T08:49:38.882Z,2.50
2018-09-19T08:52:07.752Z,2.70
2018-09-19T08:54:36.665Z,2.87
2018-09-19T08:57:05.861Z,9.40
2018-09-19T08:59:34.701Z,3.20
2018-09-19T09:02:03.959Z,2.73
2018-09-19T09:04:32.847Z,3.20
2018-09-19T09:07:01.730Z,2.67
2018-09-19T09:09:30.623Z,2.67
2018-09-19T09:11:59.521Z,2.83
2018-09-19T09:14:28.430Z,2.33
2018-09-19T09:16:57.340Z,2.63
2018-09-19T09:19:26.257Z,2.87
2018-09-19T09:21:55.187Z,2.57
2018-09-19T09:24:24.077Z,2.77
2018-09-19T09:26:53.003Z,2.93
2018-09-19T09:29:21.810Z,2.00
2018-09-19T09:31:50.688Z,2.23
2018-09-19T09:34:19.616Z,2.30
2018-09-19T09:36:48.521Z,2.73
2018-09-19T09:39:17.352Z,2.30
2018-09-19T09:41:46.215Z,2.50
2018-09-19T09:44:15.099Z,2.60
2018-09-19T09:46:43.962Z,2.37
2018-09-19T09:49:12.839Z,2.40
2018-09-19T09:51:41.702Z,2.70
2018-09-19T09:54:10.598Z,2.10
2018-09-19T09:56:39.490Z,2.00
2018-09-19T09:59:08.385Z,2.57
2018-09-19T10:01:37.257Z,2.23
2018-09-19T10:04:06.578Z,2.53
2018-09-19T10:06:35.514Z,3.03
2018-09-19T10:09:05.905Z,2.20
2018-09-19T10:11:34.787Z,2.37
2018-09-19T10:14:03.706Z,3.30
2018-09-19T10:16:32.567Z,2.10
2018-09-19T10:19:01.500Z,2.30
2018-09-19T10:21:30.364Z,2.60
2018-09-19T10:23:59.285Z,2.30
2018-09-19T10:26:28.217Z,2.20
2018-09-19T10:28:57.118Z,2.10
2018-09-19T10:31:26.003Z,2.10
2018-09-19T10:33:54.944Z,1.90
2018-09-19T10:36:23.811Z,1.87
2018-09-19T10:38:52.731Z,2.13
2018-09-19T10:41:21.608Z,1.90
2018-09-19T10:43:50.533Z,1.80
2018-09-19T10:46:19.524Z,1.80
2018-09-19T10:48:48.422Z,2.40
2018-09-19T10:51:17.315Z,2.70
2018-09-19T10:53:46.198Z,2.03
2018-09-19T10:56:15.058Z,1.80
2018-09-19T10:58:44.003Z,2.37
2018-09-19T11:01:12.915Z,2.23
2018-09-19T11:03:41.765Z,2.03
2018-09-19T11:06:10.683Z,1.77
2018-09-19T11:08:39.558Z,1.73
2018-09-19T11:11:08.663Z,2.17
2018-09-19T11:13:37.622Z,2.27
2018-09-19T11:16:06.591Z,1.67
2018-09-19T11:18:35.486Z,1.90
2018-09-19T11:21:04.443Z,1.93
2018-09-19T11:23:33.334Z,2.23
2018-09-19T11:26:02.275Z,2.10
2018-09-19T11:28:31.166Z,2.37
2018-09-19T11:31:00.056Z,1.90
2018-09-19T11:33:28.953Z,2.27
2018-09-19T11:35:57.994Z,2.23
2018-09-19T11:38:26.986Z,2.10
2018-09-19T11:40:55.907Z,2.00
2018-09-19T11:43:24.898Z,2.30
2018-09-19T11:45:53.702Z,1.60
2018-09-19T11:48:22.618Z,2.20
2018-09-19T11:50:51.501Z,1.73
2018-09-19T11:53:26.879Z,2.17
2018-09-19T11:55:56.705Z,1.93
2018-09-19T11:58:25.764Z,2.77
2018-09-19T12:00:54.658Z,1.90
2018-09-19T12:03:23.542Z,2.10
2018-09-19T12:05:52.429Z,2.13
2018-09-19T12:08:21.594Z,2.07
2018-09-19T12:10:50.487Z,1.93
2018-09-19T12:13:19.347Z,2.67
2018-09-19T12:15:48.247Z,1.90
2018-09-19T12:18:17.194Z,1.80
2018-09-19T12:20:46.071Z,2.00
2018-09-19T12:23:14.941Z,2.63
2018-09-19T12:25:44.159Z,1.97
2018-09-19T12:28:13.024Z,1.97
2018-09-19T12:30:41.898Z,2.70
2018-09-19T12:33:10.782Z,2.67
2018-09-19T12:35:39.647Z,2.07
2018-09-19T12:38:08.502Z,2.10
2018-09-19T12:40:37.393Z,2.20
2018-09-19T12:43:06.278Z,2.50
2018-09-19T12:45:35.171Z,2.07
2018-09-19T12:48:04.074Z,3.03
2018-09-19T12:50:32.994Z,1.83
2018-09-19T12:53:01.884Z,2.30
2018-09-19T12:55:30.782Z,1.80
2018-09-19T12:57:59.686Z,2.07
2018-09-19T13:00:28.586Z,2.20
2018-09-19T13:02:57.442Z,2.07
2018-09-19T13:05:26.349Z,2.70
2018-09-19T13:07:55.262Z,1.90
2018-09-19T13:10:24.142Z,2.23
2018-09-19T13:12:53.031Z,2.30
2018-09-19T13:15:21.923Z,2.10
2018-09-19T13:17:50.781Z,2.40
2018-09-19T13:20:19.678Z,2.07
2018-09-19T13:22:48.555Z,2.20
2018-09-19T13:25:17.454Z,2.20
2018-09-19T13:27:46.351Z,2.00
2018-09-19T13:30:15.291Z,2.37
2018-09-19T13:32:44.175Z,2.30
2018-09-19T13:35:13.063Z,2.10
2018-09-19T13:37:41.935Z,2.30
2018-09-19T13:40:10.851Z,2.60
2018-09-19T13:42:39.767Z,3.00
2018-09-19T13:45:08.739Z,2.67
2018-09-19T13:47:37.756Z,2.67
2018-09-19T13:50:22.650Z,2.27
2018-09-19T13:52:51.527Z,2.40
2018-09-19T13:55:20.408Z,2.70
2018-09-19T13:57:49.258Z,2.53
2018-09-19T14:00:18.215Z,2.33
2018-09-19T14:02:47.074Z,3.07
2018-09-19T14:05:15.982Z,2.30
2018-09-19T14:07:44.838Z,2.40
2018-09-19T14:10:13.726Z,2.93
2018-09-19T14:12:42.598Z,2.70
2018-09-19T14:15:11.550Z,2.70
2018-09-19T14:17:40.419Z,2.93
2018-09-19T14:20:09.318Z,2.87
2018-09-19T14:22:38.187Z,2.43
2018-09-19T14:25:07.129Z,2.40
2018-09-19T14:27:35.996Z,3.30
2018-09-19T14:30:05.138Z,2.77
2018-09-19T14:32:34.065Z,2.30
2018-09-19T14:35:02.922Z,2.33
2018-09-19T14:37:31.918Z,2.63
2018-09-19T14:40:00.780Z,2.53
2018-09-19T14:42:29.654Z,3.00
2018-09-19T14:44:58.622Z,3.00
2018-09-19T14:47:27.503Z,2.83
2018-09-19T14:49:56.411Z,3.93
2018-09-19T14:52:25.306Z,2.50
2018-09-19T14:54:54.198Z,2.70
2018-09-19T14:57:23.099Z,2.90
2018-09-19T14:59:52.031Z,3.03
2018-09-19T15:02:21.022Z,2.80
2018-09-19T15:04:49.906Z,2.40
2018-09-19T15:07:18.786Z,2.47
2018-09-19T15:09:47.755Z,3.03
2018-09-19T15:12:16.618Z,2.27
2018-09-19T15:14:45.494Z,2.60
2018-09-19T15:17:14.594Z,2.70
2018-09-19T15:19:43.475Z,3.00
2018-09-19T15:22:12.353Z,2.90
2018-09-19T15:24:41.473Z,2.97
2018-09-19T15:27:10.383Z,3.03
2018-09-19T15:29:39.280Z,2.60
2018-09-19T15:32:08.150Z,2.50
2018-09-19T15:34:37.215Z,2.90
2018-09-19T15:37:06.438Z,2.60
2018-09-19T15:39:35.298Z,2.97
2018-09-19T15:42:04.256Z,3.10
2018-09-19T15:44:33.158Z,3.13
2018-09-19T15:47:02.043Z,2.60
2018-09-19T15:49:30.918Z,3.50
2018-09-19T15:51:59.819Z,3.20
2018-09-19T15:54:28.710Z,3.13
2018-09-19T15:56:57.618Z,3.43
2018-09-19T15:59:26.490Z,3.47
2018-09-19T16:01:55.433Z,3.07
2018-09-19T16:04:24.333Z,3.40
2018-09-19T16:06:53.230Z,3.40
2018-09-19T16:09:22.142Z,3.77
2018-09-19T16:11:51.003Z,3.40
2018-09-19T16:14:19.853Z,2.67
2018-09-19T16:16:48.747Z,3.07
2018-09-19T16:19:17.607Z,3.30
2018-09-19T16:21:46.490Z,2.73
2018-09-19T16:24:15.371Z,2.90
2018-09-19T16:26:44.238Z,2.70
2018-09-19T16:29:13.098Z,2.70
2018-09-19T16:31:41.971Z,3.60
2018-09-19T16:34:10.826Z,3.27
2018-09-19T16:36:39.698Z,2.70
2018-09-19T16:39:10.351Z,3.30
2018-09-19T16:41:39.262Z,3.20
2018-09-19T16:44:08.162Z,3.10
2018-09-19T16:46:37.738Z,3.10
2018-09-19T16:49:07.322Z,3.07
2018-09-19T16:51:36.193Z,3.00
2018-09-19T16:54:05.058Z,3.03
2018-09-19T16:56:34.051Z,3.23
2018-09-19T16:59:02.946Z,2.80
2018-09-19T17:01:31.834Z,3.13
2018-09-19T17:04:00.702Z,3.33
2018-09-19T17:06:29.618Z,3.20
2018-09-19T17:08:58.516Z,3.43
2018-09-19T17:11:27.430Z,4.23
2018-09-19T17:13:56.322Z,3.30
2018-09-19T17:16:25.260Z,2.97
2018-09-19T17:18:54.239Z,3.83
2018-09-19T17:21:23.145Z,2.77
2018-09-19T17:23:51.998Z,2.93
2018-09-19T17:26:20.882Z,3.10
2018-09-19T17:28:49.786Z,3.13
2018-09-19T17:31:18.797Z,3.20
2018-09-19T17:33:47.806Z,3.10
2018-09-19T17:36:16.774Z,4.67
2018-09-19T17:38:45.646Z,3.20
2018-09-19T17:41:14.534Z,3.00
2018-09-19T17:43:43.462Z,3.60
2018-09-19T17:46:13.198Z,3.50
2018-09-19T17:48:42.093Z,2.23
2018-09-19T17:51:10.966Z,3.30
2018-09-19T17:53:39.854Z,2.70
2018-09-19T17:56:08.857Z,2.87
2018-09-19T17:58:37.967Z,2.63
2018-09-19T18:01:06.946Z,2.80
2018-09-19T18:03:36.071Z,2.87
2018-09-19T18:06:05.047Z,2.30
2018-09-19T18:08:33.839Z,3.20
2018-09-19T18:11:02.713Z,2.30
2018-09-19T18:13:31.587Z,3.17
2018-09-19T18:16:00.578Z,3.13
2018-09-19T18:18:29.490Z,3.73
2018-09-19T18:20:58.381Z,2.90
2018-09-19T18:23:27.303Z,2.90
2018-09-19T18:25:56.223Z,2.87
2018-09-19T18:28:25.086Z,3.30
2018-09-19T18:30:54.095Z,2.87
2018-09-19T18:33:22.967Z,3.50
2018-09-19T18:35:51.836Z,2.90
2018-09-19T18:38:20.717Z,3.90
2018-09-19T18:40:49.600Z,2.70
2018-09-19T18:43:18.448Z,3.20
2018-09-19T18:45:47.331Z,2.77
2018-09-19T18:48:16.182Z,3.23
2018-09-19T18:50:45.106Z,3.30
2018-09-19T18:53:13.958Z,2.93
2018-09-19T18:55:42.846Z,3.20
2018-09-19T18:58:11.699Z,3.00
2018-09-19T19:00:40.710Z,3.27
2018-09-19T19:03:09.574Z,3.10
2018-09-19T19:05:38.479Z,3.90
2018-09-19T19:08:07.354Z,3.13
2018-09-19T19:10:36.231Z,3.70
2018-09-19T19:13:05.099Z,3.50
2018-09-19T19:15:33.979Z,3.03
2018-09-19T19:18:02.843Z,3.00
2018-09-19T19:20:31.734Z,2.73
2018-09-19T19:23:00.631Z,3.23
2018-09-19T19:25:32.407Z,3.20
2018-09-19T19:28:01.274Z,3.40
2018-09-19T19:30:30.254Z,3.17
2018-09-19T19:32:59.106Z,3.27
2018-09-19T19:35:28.084Z,4.00
2018-09-19T19:37:57.187Z,3.50
2018-09-19T19:40:26.493Z,2.93
2018-09-19T19:42:55.514Z,3.20
2018-09-19T19:45:24.403Z,3.13
2018-09-19T19:47:53.294Z,3.90
2018-09-19T19:50:22.166Z,3.37
2018-09-19T19:52:51.198Z,3.90
2018-09-19T19:55:20.078Z,3.53
2018-09-19T19:57:48.955Z,2.87
2018-09-19T20:00:17.820Z,3.87
2018-09-19T20:02:46.701Z,4.30
2018-09-19T20:05:15.561Z,3.10
2018-09-19T20:07:44.424Z,3.80
2018-09-19T20:10:13.413Z,3.20
2018-09-19T20:12:42.325Z,3.80
2018-09-19T20:15:11.147Z,3.27
2018-09-19T20:17:40.079Z,4.10
2018-09-19T20:20:09.179Z,4.20
2018-09-19T20:22:38.050Z,3.97
2018-09-19T20:25:06.908Z,4.78
2018-09-19T20:27:35.794Z,3.87
2018-09-19T20:30:04.789Z,4.17
2018-09-19T20:32:33.642Z,3.67
2018-09-19T20:35:02.580Z,4.10
2018-09-19T20:37:31.464Z,3.50
2018-09-19T20:40:00.438Z,3.40
2018-09-19T20:42:29.414Z,4.10
2018-09-19T20:44:58.298Z,4.40
2018-09-19T20:47:27.246Z,3.90
2018-09-19T20:49:56.174Z,3.97
2018-09-19T20:52:25.079Z,4.20
2018-09-19T20:54:53.947Z,3.72
2018-09-19T20:57:22.846Z,3.80
2018-09-19T20:59:51.690Z,4.20
2018-09-19T21:02:20.560Z,3.75
2018-09-19T21:04:49.506Z,4.05
2018-09-19T21:07:18.307Z,4.00
2018-09-19T21:09:47.166Z,4.15
2018-09-19T21:12:16.022Z,4.70
2018-09-19T21:14:44.883Z,4.40
2018-09-19T21:17:13.810Z,4.35
2018-09-19T21:19:42.674Z,4.37
2018-09-19T21:22:11.699Z,4.60
2018-09-19T21:24:40.494Z,4.30
2018-09-19T21:27:09.577Z,4.15
2018-09-19T21:29:38.435Z,4.17
2018-09-19T21:32:07.365Z,4.50
2018-09-19T21:34:36.194Z,4.35
2018-09-19T21:37:05.111Z,4.35
2018-09-19T21:39:34.019Z,5.25
2018-09-19T21:42:02.918Z,4.00
2018-09-19T21:44:31.788Z,4.25
2018-09-19T21:47:00.691Z,4.35
2018-09-19T21:49:29.591Z,3.72
2018-09-19T21:51:58.486Z,3.60
2018-09-19T21:54:27.374Z,3.90
2018-09-19T21:56:56.266Z,4.40
2018-09-19T21:59:25.202Z,3.92
2018-09-19T22:01:58.471Z,3.85
2018-09-19T22:04:27.710Z,4.72
2018-09-19T22:06:56.731Z,4.08
2018-09-19T22:09:25.601Z,4.05
2018-09-19T22:11:54.502Z,4.25
2018-09-19T22:14:23.383Z,4.50
2018-09-19T22:16:52.382Z,3.90
2018-09-19T22:19:21.254Z,4.15
2018-09-19T22:21:50.134Z,4.33
2018-09-19T22:24:19.015Z,4.10
2018-09-19T22:26:47.947Z,4.53
2018-09-19T22:29:16.815Z,4.15
2018-09-19T22:31:45.698Z,4.00
2018-09-19T22:34:14.575Z,4.67
2018-09-19T22:36:43.463Z,4.70
2018-09-19T22:39:12.318Z,4.60
2018-09-19T22:41:41.245Z,4.55
2018-09-19T22:44:10.109Z,5.00
2018-09-19T22:46:38.995Z,4.65
2018-09-19T22:49:08.090Z,4.40
2018-09-19T22:51:36.983Z,4.50
2018-09-19T22:54:05.922Z,3.65
2018-09-19T22:56:34.815Z,4.40
2018-09-19T22:59:03.787Z,4.30
2018-09-19T23:01:32.743Z,4.40
2018-09-19T23:04:01.651Z,4.37
2018-09-19T23:06:30.554Z,4.42
2018-09-19T23:08:59.450Z,4.78
2018-09-19T23:11:28.355Z,4.00
2018-09-19T23:13:57.341Z,4.85
2018-09-19T23:16:26.250Z,3.85
2018-09-19T23:19:01.646Z,4.60
2018-09-19T23:21:30.558Z,3.85
2018-09-19T23:23:59.463Z,4.55
2018-09-19T23:26:28.386Z,5.15
2018-09-19T23:28:57.442Z,4.50
2018-09-19T23:31:26.474Z,4.95
2018-09-19T23:33:55.374Z,4.22
2018-09-19T23:36:24.271Z,4.12
2018-09-19T23:38:53.147Z,4.35
2018-09-19T23:41:22.027Z,4.20
2018-09-19T23:43:50.899Z,4.42
2018-09-19T23:46:19.781Z,4.80
2018-09-19T23:48:48.663Z,4.45
2018-09-19T23:51:17.530Z,4.45
2018-09-19T23:53:46.422Z,4.58
2018-09-19T23:56:15.319Z,4.55
2018-09-19T23:58:44.203Z,4.75
